Time;durP1;ratioP1;P1;durP2;ratioP2;P2;SDS_P1;SDS_P2;PMS_P1;PMS_P2;Temp;Humidity;BMP_temperature;BMP_pressure;BME280_temperature;BME280_humidity;BME280_pressure;Samples;Min_cycle;Max_cycle;Signal;HPM_P1;HPM_P2
2024/01/26 00:02:13;;;;;;;1.40;1.30;;;;;;;6.87;100.00;60504.16;5033156;28;20171;-68
2024/01/26 00:04:38;;;;;;;1.20;1.20;;;;;;;6.62;100.00;60460.88;5033335;28;20207;-68
2024/01/26 00:07:05;;;;;;;1.40;1.30;;;;;;;6.81;100.00;60474.00;5033867;28;20646;-68
2024/01/26 00:09:31;;;;;;;1.20;1.20;;;;;;;6.77;100.00;60447.25;5033620;28;20178;-70
2024/01/26 00:11:57;;;;;;;1.13;1.13;;;;;;;6.43;100.00;60409.13;5033574;28;20179;-68
2024/01/26 00:14:22;;;;;;;1.10;1.10;;;;;;;6.83;99.99;60441.28;5033502;28;20171;-69
2024/01/26 00:16:48;;;;;;;1.20;1.20;;;;;;;6.48;99.49;60429.97;5033440;28;20666;-69
2024/01/26 00:19:13;;;;;;;1.07;1.07;;;;;;;6.81;98.38;60444.13;5033494;28;20697;-69
2024/01/26 00:21:38;;;;;;;1.47;1.43;;;;;;;6.65;97.80;60456.63;5033376;28;20179;-69
2024/01/26 00:24:05;;;;;;;1.93;1.83;;;;;;;6.80;97.43;60432.84;5032002;28;20270;-70
2024/01/26 00:26:30;;;;;;;1.10;1.10;;;;;;;6.92;97.71;60488.88;5033424;28;20207;-71
2024/01/26 00:28:56;;;;;;;1.13;1.13;;;;;;;6.80;97.24;60473.44;5036276;28;20233;-67
2024/01/26 00:31:21;;;;;;;1.23;1.23;;;;;;;6.93;96.97;60484.94;5034958;28;20197;-70
2024/01/26 00:33:50;;;;;;;2.20;2.07;;;;;;;6.92;96.47;60481.28;5033317;28;20249;-69
2024/01/26 00:36:16;;;;;;;1.20;1.20;;;;;;;7.07;95.68;60529.09;5032990;28;20187;-68
2024/01/26 00:38:42;;;;;;;1.47;1.40;;;;;;;6.76;95.81;60474.03;5033206;28;20254;-71
2024/01/26 00:41:07;;;;;;;1.20;1.20;;;;;;;6.89;95.57;60481.00;5032951;28;20175;-70
2024/01/26 00:43:33;;;;;;;1.67;1.30;;;;;;;6.94;95.59;60499.28;5032533;28;20207;-67
2024/01/26 00:45:59;;;;;;;1.93;1.83;;;;;;;6.90;96.29;60453.63;5032838;28;20230;-67
2024/01/26 00:48:24;;;;;;;1.13;1.13;;;;;;;6.89;96.10;60508.38;5032481;28;20647;-70
2024/01/26 00:50:50;;;;;;;1.60;1.50;;;;;;;6.51;96.61;60461.81;5032986;28;20175;-69
2024/01/26 00:53:18;;;;;;;1.27;1.27;;;;;;;6.71;96.91;60597.84;5032716;28;20182;-69
2024/01/26 00:55:44;;;;;;;1.40;1.30;;;;;;;6.74;97.73;60446.44;5032908;28;20247;-68
2024/01/26 00:58:10;;;;;;;1.30;1.30;;;;;;;6.71;97.84;60488.72;5032296;28;20183;-67
2024/01/26 01:00:36;;;;;;;1.40;1.30;;;;;;;6.60;98.58;60446.53;5032570;28;20241;-69
2024/01/26 01:03:02;;;;;;;1.00;1.00;;;;;;;6.62;98.73;60445.66;5032338;28;20171;-66
2024/01/26 01:05:27;;;;;;;1.13;1.13;;;;;;;6.61;99.10;60449.63;5032375;28;20286;-70
2024/01/26 01:07:53;;;;;;;1.17;1.17;;;;;;;6.31;99.02;60443.88;5032279;28;20182;-68
2024/01/26 01:10:19;;;;;;;1.37;1.37;;;;;;;6.30;98.89;60428.09;5032144;28;20190;-68
2024/01/26 01:12:44;;;;;;;1.30;1.27;;;;;;;6.67;98.61;60476.63;5031905;28;20175;-69
2024/01/26 01:15:13;;;;;;;1.07;1.07;;;;;;;6.58;98.95;60377.75;5031899;28;20253;-69
2024/01/26 01:17:39;;;;;;;1.20;1.20;;;;;;;6.33;98.53;60504.47;5032020;28;20175;-68
2024/01/26 01:20:08;;;;;;;1.20;1.20;;;;;;;6.27;98.24;60414.59;5031886;28;20167;-69
2024/01/26 01:22:37;;;;;;;2.00;1.80;;;;;;;6.50;98.65;60419.53;5032027;28;20177;-68
2024/01/26 01:25:06;;;;;;;1.20;1.20;;;;;;;6.62;98.60;60463.97;5032141;28;20192;-69
2024/01/26 01:27:32;;;;;;;1.47;1.40;;;;;;;6.17;98.53;60409.03;5031901;28;20706;-66
2024/01/26 01:29:58;;;;;;;1.73;1.63;;;;;;;6.25;98.64;60412.34;5031956;28;20252;-68
2024/01/26 01:32:24;;;;;;;1.10;1.10;;;;;;;6.61;98.67;60690.66;5037706;28;20635;-66
2024/01/26 01:34:49;;;;;;;1.30;1.30;;;;;;;6.55;99.11;60468.25;5032012;28;20300;-70
2024/01/26 01:37:15;;;;;;;1.10;1.10;;;;;;;6.55;98.94;60468.81;5030749;28;20190;-68
2024/01/26 01:39:40;;;;;;;1.20;1.20;;;;;;;6.52;98.75;60480.13;5032034;28;20262;-71
2024/01/26 01:42:13;;;;;;;1.30;1.30;;;;;;;6.45;98.37;60464.66;5032616;28;20167;-69
2024/01/26 01:44:39;;;;;;;1.23;1.23;;;;;;;6.57;98.44;60427.38;5032193;28;20160;-68
2024/01/26 01:47:04;;;;;;;1.17;1.17;;;;;;;6.59;98.45;60460.63;5031712;28;20234;-67
2024/01/26 01:49:30;;;;;;;1.20;1.20;;;;;;;6.51;98.87;60461.81;5031867;28;20182;-70
2024/01/26 01:51:59;;;;;;;1.20;1.20;;;;;;;6.44;99.25;60426.03;5031645;28;20244;-70
2024/01/26 01:54:26;;;;;;;1.17;1.17;;;;;;;6.19;99.22;60423.97;5031686;28;20257;-69
2024/01/26 01:56:53;;;;;;;1.10;1.10;;;;;;;6.15;98.83;60561.44;5031661;28;20176;-70
2024/01/26 01:59:20;;;;;;;1.30;1.20;;;;;;;6.19;98.71;60448.75;5031496;28;20175;-71
2024/01/26 02:01:46;;;;;;;1.47;1.40;;;;;;;6.33;98.03;60420.78;5031401;28;20182;-67
2024/01/26 02:04:11;;;;;;;1.20;1.20;;;;;;;6.56;98.57;60421.19;5031386;28;20179;-67
2024/01/26 02:06:36;;;;;;;1.20;1.20;;;;;;;6.43;99.07;60437.59;5031332;28;20258;-67
2024/01/26 02:09:02;;;;;;;1.20;1.20;;;;;;;6.19;99.08;60385.38;5031110;28;20607;-67
2024/01/26 02:11:27;;;;;;;7.13;1.93;;;;;;;6.45;99.01;60434.22;5031882;28;20538;-68
2024/01/26 02:13:52;;;;;;;1.10;1.10;;;;;;;6.19;99.32;60420.88;5031184;28;20674;-69
2024/01/26 02:16:18;;;;;;;1.30;1.30;;;;;;;6.33;98.58;60489.81;5031402;28;20175;-66
2024/01/26 02:18:43;;;;;;;2.20;2.10;;;;;;;6.19;98.70;60390.44;5031532;28;20226;-70
2024/01/26 02:21:09;;;;;;;1.40;1.40;;;;;;;6.53;98.48;60422.88;5031102;28;20190;-69
2024/01/26 02:23:34;;;;;;;1.10;1.10;;;;;;;6.62;97.96;60438.59;5031157;28;20262;-70
2024/01/26 02:25:59;;;;;;;1.40;1.30;;;;;;;6.63;98.08;60472.16;5029645;28;20269;-69
2024/01/26 02:28:25;;;;;;;1.07;1.07;;;;;;;6.53;97.79;60374.69;5029988;28;20650;-67
2024/01/26 02:30:50;;;;;;;1.60;1.50;;;;;;;6.52;97.60;60624.72;5032062;28;20183;-69
2024/01/26 02:33:16;;;;;;;1.40;1.33;;;;;;;6.63;97.92;60451.84;5033825;28;20685;-68
2024/01/26 02:35:41;;;;;;;1.43;1.37;;;;;;;6.35;97.67;60428.06;5029818;28;20720;-70
2024/01/26 02:38:07;;;;;;;1.03;1.03;;;;;;;6.78;97.29;60478.81;5030756;28;20179;-70
2024/01/26 02:40:32;;;;;;;1.30;1.27;;;;;;;6.78;97.17;60468.69;5031375;28;20677;-72
2024/01/26 02:42:58;;;;;;;1.17;1.17;;;;;;;6.66;97.25;60566.84;5031300;28;20211;-70
2024/01/26 02:45:24;;;;;;;1.37;1.33;;;;;;;6.77;97.40;60472.63;5030940;28;20682;-69
2024/01/26 02:47:50;;;;;;;1.00;1.00;;;;;;;6.87;96.91;60516.28;5031052;28;20179;-69
2024/01/26 02:50:15;;;;;;;1.03;1.03;;;;;;;6.86;97.02;60444.66;5030733;28;20194;-66
2024/01/26 02:52:40;;;;;;;1.73;1.63;;;;;;;6.64;96.34;60485.97;5029647;28;20183;-71
2024/01/26 02:55:06;;;;;;;1.40;1.30;;;;;;;6.95;95.80;60551.19;5031074;28;20665;-66
2024/01/26 02:57:31;;;;;;;1.20;1.20;;;;;;;6.97;95.83;60486.88;5031257;28;20183;-70
2024/01/26 02:59:57;;;;;;;1.20;1.20;;;;;;;6.75;96.01;60576.41;5030588;28;20613;-72
2024/01/26 03:02:22;;;;;;;1.20;1.20;;;;;;;7.02;96.02;60500.66;5031153;28;20266;-66
2024/01/26 03:04:48;;;;;;;1.10;1.10;;;;;;;6.89;96.54;60493.69;5030685;28;20199;-69
2024/01/26 03:07:14;;;;;;;1.07;1.07;;;;;;;6.37;96.82;60394.81;5030941;28;20179;-69
2024/01/26 03:09:39;;;;;;;1.30;1.30;;;;;;;6.89;97.21;60478.47;5030376;28;20557;-69
2024/01/26 03:12:05;;;;;;;1.47;1.40;;;;;;;6.79;96.40;60452.03;5030747;28;20257;-69
2024/01/26 03:14:30;;;;;;;1.10;1.10;;;;;;;6.81;96.56;60431.44;5031035;28;20186;-74
2024/01/26 03:16:55;;;;;;;1.10;1.10;;;;;;;6.97;96.53;60507.19;5030815;28;20696;-72
2024/01/26 03:19:21;;;;;;;1.13;1.13;;;;;;;6.99;96.45;60466.81;5030813;28;20225;-72
2024/01/26 03:21:46;;;;;;;1.07;1.07;;;;;;;6.83;96.91;60380.38;5030161;28;20180;-71
2024/01/26 03:24:12;;;;;;;1.13;1.13;;;;;;;6.92;96.89;60466.59;5034482;28;20172;-72
2024/01/26 03:26:38;;;;;;;1.00;1.00;;;;;;;6.56;97.04;60454.16;5029559;28;20212;-73
2024/01/26 03:29:05;;;;;;;1.07;1.07;;;;;;;6.63;97.05;60551.38;5030615;28;20635;-70
2024/01/26 03:31:31;;;;;;;1.20;1.20;;;;;;;6.83;96.96;60484.44;5030700;28;20225;-72
2024/01/26 03:33:56;;;;;;;1.10;1.10;;;;;;;6.62;97.01;60484.28;5030370;28;20231;-70
2024/01/26 03:36:22;;;;;;;1.17;1.17;;;;;;;6.68;97.24;60654.81;5030058;28;20207;-70
2024/01/26 03:38:47;;;;;;;0.93;0.93;;;;;;;6.83;97.17;60479.34;5034274;28;20168;-75
2024/01/26 03:41:13;;;;;;;1.00;1.00;;;;;;;6.82;97.44;60439.59;5034580;28;20164;-73
2024/01/26 03:43:39;;;;;;;1.20;1.20;;;;;;;6.77;97.25;60393.97;5034423;28;20664;-74
2024/01/26 03:46:06;;;;;;;1.00;1.00;;;;;;;6.62;97.07;60603.50;5032751;28;20207;-72
2024/01/26 03:48:31;;;;;;;1.60;1.50;;;;;;;6.85;97.24;60486.09;5034193;28;20199;-70
2024/01/26 03:51:00;;;;;;;1.20;1.20;;;;;;;6.67;98.12;60443.66;5033761;28;20178;-72
2024/01/26 03:53:26;;;;;;;1.10;1.10;;;;;;;6.54;97.90;60434.16;5033566;28;20576;-72
2024/01/26 03:55:54;;;;;;;1.60;1.50;;;;;;;6.34;98.56;60432.59;5033957;28;20186;-73
2024/01/26 03:58:20;;;;;;;1.03;1.03;;;;;;;6.69;99.23;60440.81;5034115;28;20336;-71
2024/01/26 04:00:45;;;;;;;1.40;1.30;;;;;;;6.28;100.00;60410.66;5033345;28;20259;-72
2024/01/26 04:03:11;;;;;;;1.07;1.07;;;;;;;6.58;100.00;60433.56;5034014;28;20184;-73
2024/01/26 04:05:36;;;;;;;1.20;1.20;;;;;;;6.39;100.00;60402.69;5033281;28;20631;-71
2024/01/26 04:08:02;;;;;;;1.10;1.10;;;;;;;6.60;100.00;60461.19;5033356;28;20175;-72
2024/01/26 04:10:27;;;;;;;1.10;1.10;;;;;;;6.65;100.00;60459.75;5033573;28;20740;-70
2024/01/26 04:12:52;;;;;;;1.20;1.20;;;;;;;6.26;99.20;60428.13;5033496;28;20659;-71
2024/01/26 04:15:18;;;;;;;1.00;1.00;;;;;;;6.71;97.37;60473.50;5033465;28;20234;-73
2024/01/26 04:17:43;;;;;;;0.90;0.90;;;;;;;6.40;97.03;60441.84;5033299;28;20537;-68
2024/01/26 04:20:09;;;;;;;1.10;1.10;;;;;;;6.46;95.97;60658.56;5033209;28;20270;-72
2024/01/26 04:22:34;;;;;;;1.13;1.13;;;;;;;6.77;95.47;60513.22;5038779;28;20203;-72
2024/01/26 04:24:59;;;;;;;1.10;1.10;;;;;;;6.84;94.96;60495.72;5033169;28;20241;-72
2024/01/26 04:27:25;;;;;;;1.27;1.27;;;;;;;6.77;94.75;60475.16;5033233;28;20167;-74
2024/01/26 04:29:50;;;;;;;1.30;1.30;;;;;;;6.56;95.10;60457.25;5033466;28;20179;-69
2024/01/26 04:32:16;;;;;;;1.23;1.23;;;;;;;6.85;95.27;60446.06;5033226;28;20174;-72
2024/01/26 04:34:41;;;;;;;1.10;1.10;;;;;;;6.43;95.62;60447.19;5032630;28;20718;-73
2024/01/26 04:37:07;;;;;;;1.30;1.23;;;;;;;6.71;95.55;60472.94;5033426;28;20168;-74
2024/01/26 04:39:33;;;;;;;1.10;1.10;;;;;;;6.54;95.64;60414.44;5033160;28;20167;-70
2024/01/26 04:41:58;;;;;;;0.90;0.90;;;;;;;6.63;96.09;60429.59;5033003;28;20172;-68
2024/01/26 04:44:24;;;;;;;1.17;1.17;;;;;;;6.53;96.44;60473.63;5031775;28;20182;-67
2024/01/26 04:46:52;;;;;;;1.30;1.30;;;;;;;6.13;96.78;60439.47;5032848;28;20264;-70
2024/01/26 04:49:18;;;;;;;1.07;1.07;;;;;;;6.25;96.25;60427.00;5031930;28;20167;-68
2024/01/26 04:51:43;;;;;;;1.10;1.10;;;;;;;6.48;96.02;60437.56;5032577;28;20669;-68
2024/01/26 04:54:09;;;;;;;1.10;1.10;;;;;;;6.46;95.87;60463.81;5032600;28;20663;-69
2024/01/26 04:56:34;;;;;;;1.40;1.30;;;;;;;6.19;95.47;60613.53;5032673;28;20168;-72
2024/01/26 04:59:00;;;;;;;1.00;1.00;;;;;;;6.33;95.73;60433.47;5032912;28;20214;-69
2024/01/26 05:01:25;;;;;;;1.60;1.50;;;;;;;6.25;95.41;60637.47;5032317;28;20179;-69
2024/01/26 05:03:50;;;;;;;1.07;1.07;;;;;;;6.09;95.14;60407.69;5032263;28;20174;-69
2024/01/26 05:06:16;;;;;;;1.77;1.67;;;;;;;6.41;94.69;60427.19;5031883;28;20198;-71
2024/01/26 05:08:41;;;;;;;1.30;1.30;;;;;;;6.46;94.56;60435.34;5032288;28;20175;-68
2024/01/26 05:11:06;;;;;;;1.07;1.07;;;;;;;6.50;93.96;60453.06;5030804;28;20175;-68
2024/01/26 05:13:32;;;;;;;1.30;1.20;;;;;;;6.46;94.03;60455.63;5032190;28;20187;-69
2024/01/26 05:15:57;;;;;;;1.20;1.20;;;;;;;6.07;94.29;60399.81;5032200;28;20197;-73
2024/01/26 05:18:23;;;;;;;1.10;1.10;;;;;;;6.44;94.06;60486.91;5032012;28;20193;-69
2024/01/26 05:20:48;;;;;;;1.00;1.00;;;;;;;6.41;93.89;60478.50;5031751;28;20206;-71
2024/01/26 05:23:14;;;;;;;1.50;1.40;;;;;;;5.97;93.66;60431.69;5031989;28;20229;-70
2024/01/26 05:25:39;;;;;;;1.10;1.10;;;;;;;6.09;93.66;60379.78;5039764;28;20210;-69
2024/01/26 05:28:04;;;;;;;7.20;1.40;;;;;;;6.38;92.99;60421.31;5036961;28;20658;-70
2024/01/26 05:30:31;;;;;;;1.50;1.40;;;;;;;6.51;93.15;60474.50;5031871;28;20730;-69
2024/01/26 05:32:56;;;;;;;1.30;1.30;;;;;;;6.54;92.93;60454.44;5031790;28;20194;-67
2024/01/26 05:35:22;;;;;;;1.10;1.10;;;;;;;6.51;93.51;60471.38;5031340;28;20821;-68
2024/01/26 05:37:47;;;;;;;1.50;1.40;;;;;;;6.31;93.65;60467.28;5032064;28;20186;-69
2024/01/26 05:40:13;;;;;;;1.10;1.10;;;;;;;6.41;94.17;60432.28;5031462;28;20262;-70
2024/01/26 05:42:38;;;;;;;1.03;1.03;;;;;;;6.34;94.73;60404.13;5031686;28;20635;-69
2024/01/26 05:45:04;;;;;;;1.20;1.20;;;;;;;6.02;94.88;60437.28;5031791;28;20195;-70
2024/01/26 05:47:30;;;;;;;1.60;1.50;;;;;;;6.08;94.29;60398.38;5031603;28;20183;-69
2024/01/26 05:49:55;;;;;;;1.50;1.40;;;;;;;6.07;94.25;60413.03;5031427;28;20175;-70
2024/01/26 05:52:21;;;;;;;1.23;1.23;;;;;;;6.41;94.38;60435.38;5031873;28;20163;-69
2024/01/26 05:54:46;;;;;;;1.30;1.30;;;;;;;6.06;94.39;60391.63;5031651;28;20213;-69
2024/01/26 05:57:12;;;;;;;1.80;1.70;;;;;;;6.31;94.12;60446.97;5031309;28;20199;-71
2024/01/26 05:59:38;;;;;;;1.10;1.10;;;;;;;6.11;94.25;60384.00;5031677;28;20194;-69
2024/01/26 06:02:04;;;;;;;1.30;1.30;;;;;;;6.24;94.47;60421.41;5030511;28;20171;-72
2024/01/26 06:04:31;;;;;;;1.50;1.40;;;;;;;6.41;94.79;60470.31;5029561;28;20188;-70
2024/01/26 06:06:57;;;;;;;1.07;1.07;;;;;;;6.16;94.34;60423.13;5029339;28;20588;-69
2024/01/26 06:09:22;;;;;;;1.60;1.50;;;;;;;6.51;94.94;60466.31;5030869;28;20250;-70
2024/01/26 06:11:48;;;;;;;1.90;1.77;;;;;;;6.47;94.85;60401.53;5035153;28;20273;-71
2024/01/26 06:14:13;;;;;;;0.97;0.97;;;;;;;6.44;94.33;60433.09;5035062;28;20631;-70
2024/01/26 06:16:39;;;;;;;1.27;1.20;;;;;;;6.31;94.21;60436.28;5030812;28;20666;-73
2024/01/26 06:19:04;;;;;;;1.20;1.20;;;;;;;6.57;94.61;60435.53;5030413;28;20179;-71
2024/01/26 06:21:29;;;;;;;1.00;1.00;;;;;;;6.65;93.86;60664.69;5030856;28;20176;-71
2024/01/26 06:23:55;;;;;;;1.00;1.00;;;;;;;6.37;93.82;60460.75;5030630;28;20190;-69
2024/01/26 06:26:20;;;;;;;1.20;1.20;;;;;;;6.35;94.16;60433.16;5030792;28;20205;-67
2024/01/26 06:28:46;;;;;;;1.10;1.10;;;;;;;6.38;93.78;60441.59;5030882;28;20175;-69
2024/01/26 06:31:11;;;;;;;1.50;1.40;;;;;;;6.72;93.65;60482.25;5030646;28;20210;-72
2024/01/26 06:33:37;;;;;;;1.10;1.10;;;;;;;6.59;93.65;60498.69;5032686;28;20235;-70
2024/01/26 06:36:02;;;;;;;2.23;2.03;;;;;;;6.89;93.07;60521.59;5034296;28;20186;-68
2024/01/26 06:38:28;;;;;;;1.20;1.20;;;;;;;6.81;93.01;60477.09;5030889;28;20642;-75
2024/01/26 06:40:53;;;;;;;1.73;1.63;;;;;;;6.83;93.15;60497.13;5030697;28;20186;-69
2024/01/26 06:43:20;;;;;;;1.00;1.00;;;;;;;6.88;92.95;60451.97;5030517;28;20171;-69
2024/01/26 06:45:45;;;;;;;1.27;1.27;;;;;;;6.73;92.10;60475.75;5030408;28;20286;-70
2024/01/26 06:48:11;;;;;;;1.10;1.10;;;;;;;7.08;92.26;60522.63;5029315;28;20286;-71
2024/01/26 06:50:38;;;;;;;1.20;1.20;;;;;;;7.09;91.46;60474.94;5031186;28;20183;-67
2024/01/26 06:53:03;;;;;;;1.73;1.63;;;;;;;7.22;91.01;60532.69;5030832;28;20179;-71
2024/01/26 06:55:29;;;;;;;1.10;1.10;;;;;;;7.23;90.38;60531.28;5030651;28;20270;-73
2024/01/26 06:57:54;;;;;;;0.90;0.90;;;;;;;7.34;89.26;60553.78;5030455;28;20176;-70
2024/01/26 07:00:20;;;;;;;1.20;1.20;;;;;;;7.28;89.39;60503.31;5030739;28;20214;-70
2024/01/26 07:02:45;;;;;;;1.10;1.10;;;;;;;7.07;89.50;60534.19;5038195;28;20228;-68
2024/01/26 07:05:11;;;;;;;2.00;1.90;;;;;;;7.24;87.86;60531.84;5031113;28;20257;-66
2024/01/26 07:07:36;;;;;;;1.13;1.13;;;;;;;7.30;87.68;60566.50;5030736;28;20180;-69
2024/01/26 07:10:02;;;;;;;1.00;1.00;;;;;;;7.34;86.90;60510.59;5030512;28;20603;-69
2024/01/26 07:12:27;;;;;;;2.17;1.77;;;;;;;7.71;86.49;60548.44;5031748;28;20559;-67
2024/01/26 07:14:52;;;;;;;1.10;1.10;;;;;;;7.71;86.36;60589.09;5035011;28;20258;-71
2024/01/26 07:17:18;;;;;;;0.97;0.97;;;;;;;7.71;86.61;60582.03;5033848;28;20651;-72
2024/01/26 07:19:44;;;;;;;2.20;1.30;;;;;;;7.82;85.92;60588.75;5035083;28;20262;-72
2024/01/26 07:22:09;;;;;;;1.27;1.27;;;;;;;7.81;86.38;60585.66;5034558;28;20200;-68
2024/01/26 07:24:36;;;;;;;1.23;1.20;;;;;;;7.76;87.33;60569.88;5034323;28;20182;-69
2024/01/26 07:27:01;;;;;;;1.53;1.43;;;;;;;7.85;87.40;60567.25;5034535;28;20184;-71
2024/01/26 07:29:27;;;;;;;1.00;1.00;;;;;;;7.92;87.82;60577.66;5034439;28;20175;-70
2024/01/26 07:31:52;;;;;;;1.10;1.10;;;;;;;7.78;88.05;60544.13;5034288;28;20213;-68
2024/01/26 07:34:17;;;;;;;1.20;1.20;;;;;;;7.66;87.92;60561.19;5034217;28;20230;-68
2024/01/26 07:36:43;;;;;;;1.10;1.10;;;;;;;7.76;88.51;60551.50;5032935;28;20576;-70
2024/01/26 07:39:09;;;;;;;1.20;1.20;;;;;;;7.84;88.36;60583.94;5034313;28;20187;-71
2024/01/26 07:41:35;;;;;;;1.30;1.20;;;;;;;8.12;88.68;60614.81;5040864;28;20185;-70
2024/01/26 07:44:00;;;;;;;1.00;1.00;;;;;;;8.15;87.90;60612.50;5034100;28;20183;-68
2024/01/26 07:46:26;;;;;;;1.47;1.37;;;;;;;7.98;88.32;60738.94;5033869;28;20305;-70
2024/01/26 07:48:51;;;;;;;1.20;1.20;;;;;;;8.24;86.85;60663.31;5034040;28;20172;-70
2024/01/26 07:51:16;;;;;;;1.50;1.35;;;;;;;8.30;87.59;60629.94;5034263;28;20535;-71
2024/01/26 07:53:42;;;;;;;1.10;1.10;;;;;;;8.00;87.84;60591.16;5034106;28;20221;-70
2024/01/26 07:56:07;;;;;;;1.30;1.30;;;;;;;8.47;87.61;60637.72;5034023;28;20642;-73
2024/01/26 07:58:33;;;;;;;1.10;1.10;;;;;;;8.17;86.87;60627.50;5033774;28;20171;-70
2024/01/26 08:00:58;;;;;;;1.30;1.30;;;;;;;8.15;86.34;60602.91;5033521;28;20229;-67
2024/01/26 08:03:24;;;;;;;1.20;1.20;;;;;;;8.42;88.31;60630.69;5034150;28;20187;-68
2024/01/26 08:05:49;;;;;;;1.40;1.30;;;;;;;8.53;86.10;60596.69;5033664;28;20346;-70
2024/01/26 08:08:15;;;;;;;1.10;1.10;;;;;;;8.12;86.27;60568.47;5033413;28;20235;-69
2024/01/26 08:10:40;;;;;;;1.10;1.10;;;;;;;8.37;85.88;60556.38;5033334;28;20552;-73
2024/01/26 08:13:06;;;;;;;1.10;1.10;;;;;;;8.60;86.87;60683.44;5033079;28;20539;-68
2024/01/26 08:15:31;;;;;;;1.35;1.25;;;;;;;8.67;86.76;60614.38;5033140;28;20262;-67
2024/01/26 08:17:56;;;;;;;1.15;1.15;;;;;;;8.77;87.19;60669.47;5033259;28;20560;-71
2024/01/26 08:20:22;;;;;;;0.90;0.90;;;;;;;8.67;86.22;60655.69;5033890;28;20180;-72
2024/01/26 08:22:47;;;;;;;1.30;1.30;;;;;;;8.85;86.21;60678.44;5033617;28;20175;-71
2024/01/26 08:25:13;;;;;;;2.15;1.63;;;;;;;8.89;84.84;60700.19;5032159;28;20194;-66
2024/01/26 08:27:38;;;;;;;1.10;1.10;;;;;;;8.53;84.71;60636.84;5033054;28;20230;-70
2024/01/26 08:30:05;;;;;;;1.40;1.30;;;;;;;8.79;84.50;60717.53;5033490;28;20202;-70
2024/01/26 08:32:30;;;;;;;1.65;1.55;;;;;;;8.86;85.03;60857.28;5031558;28;20257;-70
2024/01/26 08:34:56;;;;;;;1.10;1.10;;;;;;;8.73;84.44;60712.78;5033374;28;20666;-70
2024/01/26 08:37:21;;;;;;;1.50;1.40;;;;;;;9.04;85.07;60640.09;5033328;28;20689;-71
2024/01/26 08:39:47;;;;;;;1.10;1.10;;;;;;;8.78;84.53;60723.50;5032966;28;20175;-68
2024/01/26 08:42:13;;;;;;;1.80;1.70;;;;;;;8.99;83.09;60688.53;5032870;28;20181;-72
2024/01/26 08:44:38;;;;;;;1.27;1.20;;;;;;;9.11;82.32;60688.72;5033013;28;20179;-68
2024/01/26 08:47:04;;;;;;;1.27;1.27;;;;;;;9.03;82.13;60700.09;5034834;28;20311;-70
2024/01/26 08:49:30;;;;;;;1.30;1.20;;;;;;;9.12;80.90;60659.25;5035787;28;20643;-69
2024/01/26 08:51:57;;;;;;;1.00;1.00;;;;;;;8.93;83.41;60704.13;5032573;28;20164;-70
2024/01/26 08:54:23;;;;;;;1.02;1.02;;;;;;;9.20;81.93;60750.34;5031413;28;20237;-69
2024/01/26 08:56:49;;;;;;;1.40;1.30;;;;;;;9.18;81.67;60704.78;5032719;28;20166;-68
2024/01/26 08:59:14;;;;;;;1.20;1.20;;;;;;;8.96;81.52;60865.44;5031466;28;20172;-69
2024/01/26 09:01:40;;;;;;;1.35;1.27;;;;;;;9.24;81.94;60721.72;5032132;28;20668;-68
2024/01/26 09:04:05;;;;;;;1.10;1.10;;;;;;;9.09;81.70;60676.28;5030475;28;20190;-71
2024/01/26 09:06:32;;;;;;;1.40;1.30;;;;;;;9.21;82.52;60720.31;5030796;28;20591;-68
2024/01/26 09:08:57;;;;;;;1.00;1.00;;;;;;;9.16;81.82;60704.50;5031989;28;20255;-71
2024/01/26 09:11:23;;;;;;;1.40;1.30;;;;;;;9.08;80.48;60680.22;5031620;28;20174;-69
2024/01/26 09:13:48;;;;;;;1.65;1.45;;;;;;;9.30;80.71;60776.88;5031530;28;20172;-69
2024/01/26 09:16:14;;;;;;;1.20;1.20;;;;;;;9.35;80.39;60705.47;5031854;28;20276;-70
2024/01/26 09:18:40;;;;;;;1.13;1.10;;;;;;;9.04;81.17;60696.69;5031625;28;20630;-69
2024/01/26 09:21:10;;;;;;;1.00;1.00;;;;;;;9.50;80.00;60745.28;5029667;28;20659;-70
2024/01/26 09:23:36;;;;;;;1.00;1.00;;;;;;;9.41;79.37;60750.47;5038202;28;20183;-70
2024/01/26 09:26:01;;;;;;;1.10;1.10;;;;;;;9.65;78.78;60749.41;5039309;28;20345;-70
2024/01/26 09:28:26;;;;;;;1.13;1.13;;;;;;;9.60;77.93;60717.72;5038419;28;20206;-70
2024/01/26 09:30:52;;;;;;;1.20;1.20;;;;;;;9.62;78.87;60745.47;5039000;28;20683;-72
2024/01/26 09:33:18;;;;;;;1.52;1.42;;;;;;;9.51;79.39;60700.53;5030472;28;20194;-68
2024/01/26 09:35:43;;;;;;;0.95;0.95;;;;;;;9.27;79.56;60714.34;5029436;28;20183;-70
2024/01/26 09:38:09;;;;;;;1.10;1.10;;;;;;;9.58;78.58;60705.84;5030425;28;20595;-73
2024/01/26 09:40:35;;;;;;;1.13;1.13;;;;;;;9.73;78.65;60799.19;5029541;28;20183;-72
2024/01/26 09:43:00;;;;;;;1.17;1.13;;;;;;;9.86;79.36;60805.03;5033690;28;20194;-71
2024/01/26 09:45:26;;;;;;;1.00;1.00;;;;;;;9.58;78.23;60774.66;5035359;28;20310;-70
2024/01/26 09:47:52;;;;;;;1.50;1.40;;;;;;;9.87;78.75;61005.13;5031575;28;20565;-72
2024/01/26 09:50:21;;;;;;;2.15;1.95;;;;;;;9.61;76.91;60910.66;5037956;28;20290;-67
2024/01/26 09:52:47;;;;;;;1.10;1.10;;;;;;;9.55;76.41;60752.91;5034692;28;20209;-71
2024/01/26 09:55:15;;;;;;;2.05;1.85;;;;;;;9.74;76.20;60774.84;5029904;28;20187;-67
2024/01/26 09:57:42;;;;;;;1.00;1.00;;;;;;;9.84;77.58;60793.16;5030035;28;20195;-70
2024/01/26 10:00:10;;;;;;;1.10;1.10;;;;;;;10.02;76.58;60772.03;5036916;28;20176;-71
2024/01/26 10:02:35;;;;;;;1.40;1.30;;;;;;;10.01;76.25;60788.75;5030029;28;20195;-70
2024/01/26 10:05:01;;;;;;;1.10;1.10;;;;;;;9.77;74.84;60790.38;5037915;28;20207;-69
2024/01/26 10:07:26;;;;;;;1.20;1.20;;;;;;;9.72;76.52;60764.91;5029929;28;20266;-70
2024/01/26 10:09:52;;;;;;;1.30;1.25;;;;;;;9.92;76.56;60769.00;5037790;28;20178;-71
2024/01/26 10:12:18;;;;;;;1.08;1.08;;;;;;;9.75;78.00;60831.50;5037715;28;20191;-70
2024/01/26 10:14:43;;;;;;;1.00;1.00;;;;;;;9.90;76.50;60782.06;5028914;28;20398;-71
2024/01/26 10:17:16;;;;;;;1.02;1.02;;;;;;;9.94;76.20;60849.78;5036360;28;20293;-68
2024/01/26 10:19:42;;;;;;;1.27;1.20;;;;;;;9.99;75.50;60781.97;5028126;28;20606;-72
2024/01/26 10:22:08;;;;;;;1.58;1.45;;;;;;;10.23;74.97;60833.38;5028245;28;20183;-70
2024/01/26 10:24:33;;;;;;;1.42;1.33;;;;;;;10.13;74.94;60767.09;5039729;28;20713;-67
2024/01/26 10:26:59;;;;;;;1.20;1.20;;;;;;;10.13;76.58;60794.59;5036556;28;20705;-70
2024/01/26 10:29:24;;;;;;;3.30;1.98;;;;;;;10.17;75.08;60794.56;5035710;28;20187;-70
2024/01/26 10:31:51;;;;;;;0.95;0.95;;;;;;;9.93;75.64;60787.41;5038514;28;20563;-68
2024/01/26 10:34:17;;;;;;;1.10;1.10;;;;;;;10.18;75.49;60762.53;5037119;28;20235;-69
2024/01/26 10:36:44;;;;;;;1.10;1.10;;;;;;;10.10;74.54;60814.19;5029220;28;20198;-67
2024/01/26 10:39:19;;;;;;;1.42;1.33;;;;;;;10.46;74.99;60793.47;5028433;28;20276;-68
2024/01/26 10:41:48;;;;;;;1.00;1.00;;;;;;;10.50;75.11;60808.16;5036514;28;20311;-69
2024/01/26 10:44:14;;;;;;;1.02;1.02;;;;;;;10.41;73.27;60836.34;5028946;28;20266;-70
2024/01/26 10:46:41;;;;;;;1.15;1.15;;;;;;;10.33;72.76;60814.00;5026590;28;20226;-67
2024/01/26 10:49:07;;;;;;;1.10;1.10;;;;;;;10.50;74.57;60787.19;5029492;28;20329;-70
2024/01/26 10:51:37;;;;;;;1.20;1.10;;;;;;;10.04;73.95;60787.03;5028826;28;20563;-68
2024/01/26 10:54:08;;;;;;;1.13;1.13;;;;;;;10.29;74.06;61016.28;5032200;28;20175;-71
2024/01/26 10:56:34;;;;;;;1.58;1.48;;;;;;;10.43;74.39;60838.03;5037696;28;20614;-70
2024/01/26 10:59:00;;;;;;;1.20;1.20;;;;;;;10.42;73.85;60877.75;5035672;28;20198;-72
2024/01/26 11:01:26;;;;;;;1.10;1.10;;;;;;;10.27;72.94;60787.41;5028690;28;20183;-68
2024/01/26 11:03:56;;;;;;;1.15;1.15;;;;;;;10.63;72.81;61013.78;5028672;28;20190;-71
2024/01/26 11:06:22;;;;;;;0.90;0.90;;;;;;;10.61;72.43;60856.31;5036178;28;20195;-68
2024/01/26 11:08:47;;;;;;;1.00;1.00;;;;;;;10.60;71.72;60877.59;5027264;28;20186;-70
2024/01/26 11:11:15;;;;;;;0.93;0.93;;;;;;;10.47;71.67;60863.53;5029203;28;20202;-70
2024/01/26 11:13:40;;;;;;;1.75;1.65;;;;;;;10.52;72.30;60820.63;5036475;28;20589;-68
2024/01/26 11:16:07;;;;;;;0.90;0.90;;;;;;;10.67;71.08;60826.19;5028470;28;20202;-68
2024/01/26 11:18:36;;;;;;;1.20;1.20;;;;;;;10.29;72.51;60799.31;5036436;28;20585;-69
2024/01/26 11:21:02;;;;;;;1.00;1.00;;;;;;;10.55;71.41;60836.78;5031594;28;20194;-66
2024/01/26 11:23:39;;;;;;;2.42;1.63;;;;;;;10.40;73.29;60812.25;5036844;28;20189;-66
2024/01/26 11:26:12;;;;;;;1.00;1.00;;;;;;;10.51;72.72;60778.66;5030177;28;20256;-69
2024/01/26 11:28:37;;;;;;;1.00;1.00;;;;;;;10.72;70.77;60870.69;5030288;28;20227;-69
2024/01/26 11:31:04;;;;;;;1.10;1.10;;;;;;;10.18;71.87;60811.03;5030376;28;20172;-67
2024/01/26 11:33:37;;;;;;;1.00;1.00;;;;;;;10.22;71.85;60791.97;5029860;28;20314;-67
2024/01/26 11:36:11;;;;;;;1.33;1.20;;;;;;;10.08;73.11;60737.97;5030667;28;20234;-69